createdAt,value
2018-09-03T00:00:45.701Z,33.80
2018-09-03T00:03:17.734Z,33.80
2018-09-03T00:05:49.337Z,33.80
2018-09-03T00:08:20.773Z,33.80
2018-09-03T00:10:52.912Z,33.80
2018-09-03T00:13:24.194Z,33.80
2018-09-03T00:15:55.865Z,33.80
2018-09-03T00:18:27.087Z,33.70
2018-09-03T00:20:58.812Z,33.70
2018-09-03T00:23:30.431Z,33.60
2018-09-03T00:26:02.032Z,33.60
2018-09-03T00:28:34.099Z,33.70
2018-09-03T00:31:10.481Z,33.60
2018-09-03T00:33:46.629Z,33.60
2018-09-03T00:36:23.139Z,33.60
2018-09-03T00:38:59.446Z,33.60
2018-09-03T00:41:35.800Z,33.60
2018-09-03T00:44:11.925Z,33.60
2018-09-03T00:46:48.194Z,33.60
2018-09-03T00:49:20.124Z,33.60
2018-09-03T00:51:52.017Z,33.60
2018-09-03T00:54:23.585Z,33.60
2018-09-03T00:56:57.417Z,33.50
2018-09-03T00:59:28.642Z,33.50
2018-09-03T01:02:00.217Z,33.50
2018-09-03T01:04:31.698Z,33.50
2018-09-03T01:07:03.944Z,33.50
2018-09-03T01:09:35.261Z,33.50
2018-09-03T01:12:07.058Z,33.50
2018-09-03T01:14:38.258Z,33.50
2018-09-03T01:17:10.070Z,33.50
2018-09-03T01:19:41.594Z,33.50
2018-09-03T01:22:13.403Z,33.50
2018-09-03T01:24:44.654Z,33.50
2018-09-03T01:27:16.370Z,33.50
2018-09-03T01:29:47.671Z,33.50
2018-09-03T01:32:19.625Z,33.50
2018-09-03T01:34:51.079Z,33.50
2018-09-03T01:37:22.722Z,33.50
2018-09-03T01:39:53.985Z,33.50
2018-09-03T01:42:26.189Z,33.50
2018-09-03T01:44:57.480Z,33.50
2018-09-03T01:47:29.197Z,33.50
2018-09-03T01:50:00.404Z,33.50
2018-09-03T01:52:32.128Z,33.50
2018-09-03T01:55:03.521Z,33.50
2018-09-03T01:57:36.476Z,33.40
2018-09-03T02:00:08.155Z,33.40
2018-09-03T02:02:40.115Z,33.40
2018-09-03T02:05:11.653Z,33.30
2018-09-03T02:07:43.470Z,33.10
2018-09-03T02:10:15.501Z,33.10
2018-09-03T02:12:46.951Z,33.10
2018-09-03T02:15:18.577Z,33.10
2018-09-03T02:17:50.193Z,33.20
2018-09-03T02:20:21.705Z,33.20
2018-09-03T02:22:53.277Z,33.20
2018-09-03T02:25:24.578Z,33.30
2018-09-03T02:27:56.337Z,33.40
2018-09-03T02:30:27.897Z,33.50
2018-09-03T02:32:59.345Z,33.50
2018-09-03T02:35:30.748Z,33.60
2018-09-03T02:38:02.385Z,33.50
2018-09-03T02:40:33.853Z,33.60
2018-09-03T02:43:05.656Z,33.70
2018-09-03T02:45:36.971Z,33.60
2018-09-03T02:48:10.792Z,33.60
2018-09-03T02:50:42.113Z,33.70
2018-09-03T02:53:14.013Z,33.80
2018-09-03T02:55:45.642Z,33.80
2018-09-03T02:58:22.127Z,33.90
2018-09-03T03:00:53.469Z,34.00
2018-09-03T03:03:24.952Z,34.10
2018-09-03T03:05:56.332Z,34.20
2018-09-03T03:08:27.889Z,34.20
2018-09-03T03:10:59.158Z,34.50
2018-09-03T03:13:30.956Z,34.60
2018-09-03T03:16:02.277Z,34.70
2018-09-03T03:18:33.770Z,34.70
2018-09-03T03:21:05.352Z,34.80
2018-09-03T03:23:36.941Z,34.80
2018-09-03T03:26:08.390Z,34.80
2018-09-03T03:28:40.279Z,34.90
2018-09-03T03:31:12.103Z,35.10
2018-09-03T03:33:43.832Z,35.20
2018-09-03T03:36:15.831Z,35.40
2018-09-03T03:38:47.430Z,35.70
2018-09-03T03:41:18.803Z,35.90
2018-09-03T03:43:50.365Z,35.90
2018-09-03T03:46:21.753Z,36.10
2018-09-03T03:48:53.321Z,36.40
2018-09-03T03:51:24.791Z,36.60
2018-09-03T03:53:56.495Z,36.70
2018-09-03T03:56:27.886Z,36.90
2018-09-03T03:59:02.076Z,37.00
2018-09-03T04:01:33.505Z,37.10
2018-09-03T04:04:05.569Z,37.20
2018-09-03T04:06:37.030Z,37.40
2018-09-03T04:09:11.179Z,37.70
2018-09-03T04:11:42.677Z,37.90
2018-09-03T04:14:14.439Z,38.20
2018-09-03T04:16:45.835Z,38.30
2018-09-03T04:19:17.593Z,38.60
2018-09-03T04:21:49.031Z,38.80
2018-09-03T04:24:20.848Z,39.10
2018-09-03T04:26:52.344Z,39.80
2018-09-03T04:29:24.045Z,40.40
2018-09-03T04:31:55.194Z,41.00
2018-09-03T04:34:27.158Z,40.90
2018-09-03T04:36:58.765Z,40.60
2018-09-03T04:39:30.505Z,40.70
2018-09-03T04:42:03.782Z,41.00
2018-09-03T04:44:35.861Z,42.30
2018-09-03T04:47:07.433Z,44.10
2018-09-03T04:49:39.144Z,45.10
2018-09-03T04:52:10.533Z,43.90
2018-09-03T04:54:42.327Z,44.10
2018-09-03T04:57:13.891Z,43.50
2018-09-03T04:59:46.278Z,43.60
2018-09-03T05:02:17.742Z,43.40
2018-09-03T05:04:49.202Z,42.90
2018-09-03T05:07:20.742Z,43.00
2018-09-03T05:09:52.397Z,42.90
2018-09-03T05:12:23.934Z,43.10
2018-09-03T05:14:55.737Z,44.40
2018-09-03T05:17:27.020Z,45.40
2018-09-03T05:19:58.765Z,45.80
2018-09-03T05:22:30.301Z,46.50
2018-09-03T05:25:02.528Z,46.50
2018-09-03T05:27:33.765Z,46.60
2018-09-03T05:30:05.390Z,45.90
2018-09-03T05:32:36.992Z,45.00
2018-09-03T05:35:08.649Z,44.50
2018-09-03T05:37:40.089Z,44.10
2018-09-03T05:40:11.982Z,43.60
2018-09-03T05:42:43.260Z,43.70
2018-09-03T05:45:15.417Z,43.60
2018-09-03T05:47:46.824Z,43.20
2018-09-03T05:50:18.396Z,43.20
2018-09-03T05:52:49.718Z,43.20
2018-09-03T05:55:22.020Z,43.70
2018-09-03T05:57:53.575Z,44.60
2018-09-03T06:00:26.725Z,45.70
2018-09-03T06:02:58.003Z,46.70
2018-09-03T06:05:29.697Z,47.40
2018-09-03T06:08:01.600Z,46.70
2018-09-03T06:10:33.843Z,48.10
2018-09-03T06:13:05.938Z,47.60
2018-09-03T06:15:37.842Z,46.40
2018-09-03T06:18:09.865Z,46.40
2018-09-03T06:20:41.576Z,45.80
2018-09-03T06:23:12.985Z,45.60
2018-09-03T06:25:44.917Z,45.20
2018-09-03T06:28:16.265Z,45.10
2018-09-03T06:30:47.920Z,45.10
2018-09-03T06:33:19.136Z,45.30
2018-09-03T06:35:50.836Z,45.40
2018-09-03T06:38:22.300Z,45.00
2018-09-03T06:40:53.823Z,45.00
2018-09-03T06:43:25.305Z,44.90
2018-09-03T06:45:57.209Z,45.00
2018-09-03T06:48:28.677Z,44.80
2018-09-03T06:51:00.213Z,44.90
2018-09-03T06:53:31.800Z,45.00
2018-09-03T06:56:04.001Z,45.20
2018-09-03T06:58:35.358Z,45.90
2018-09-03T07:01:08.316Z,46.60
2018-09-03T07:03:39.706Z,47.40
2018-09-03T07:06:11.442Z,47.60
2018-09-03T07:08:42.940Z,48.30
2018-09-03T07:11:14.353Z,47.80
2018-09-03T07:13:45.704Z,48.60
2018-09-03T07:16:17.401Z,48.40
2018-09-03T07:18:49.303Z,48.20
2018-09-03T07:21:21.166Z,47.20
2018-09-03T07:23:52.585Z,46.70
2018-09-03T07:26:24.333Z,46.50
2018-09-03T07:28:55.640Z,46.40
2018-09-03T07:31:27.341Z,46.40
2018-09-03T07:33:58.609Z,46.00
2018-09-03T07:36:30.192Z,46.00
2018-09-03T07:39:02.271Z,46.00
2018-09-03T07:41:33.891Z,46.00
2018-09-03T07:44:05.285Z,45.90
2018-09-03T07:46:37.158Z,45.70
2018-09-03T07:49:08.605Z,45.40
2018-09-03T07:51:40.161Z,45.50
2018-09-03T07:54:11.657Z,45.20
2018-09-03T07:56:43.161Z,45.10
2018-09-03T07:59:14.512Z,45.20
2018-09-03T08:01:48.043Z,45.60
2018-09-03T08:04:19.361Z,45.60
2018-09-03T08:06:51.490Z,45.30
2018-09-03T08:09:22.853Z,45.10
2018-09-03T08:11:54.765Z,44.90
2018-09-03T08:14:25.973Z,44.70
2018-09-03T08:16:57.795Z,44.50
2018-09-03T08:19:29.329Z,44.20
2018-09-03T08:22:02.554Z,44.40
2018-09-03T08:24:33.924Z,44.40
2018-09-03T08:27:06.458Z,44.30
2018-09-03T08:29:37.926Z,44.10
2018-09-03T08:32:09.330Z,44.20
2018-09-03T08:34:40.694Z,44.40
2018-09-03T08:37:12.381Z,44.20
2018-09-03T08:39:44.191Z,44.30
2018-09-03T08:42:16.082Z,44.50
2018-09-03T08:44:47.460Z,44.30
2018-09-03T08:47:19.526Z,44.30
2018-09-03T08:49:50.906Z,44.40
2018-09-03T08:52:22.733Z,44.60
2018-09-03T08:54:54.234Z,44.50
2018-09-03T08:57:26.103Z,44.30
2018-09-03T08:59:57.533Z,44.20
2018-09-03T09:02:31.617Z,43.90
2018-09-03T09:05:03.861Z,43.90
2018-09-03T09:07:35.547Z,43.70
2018-09-03T09:10:07.126Z,43.80
2018-09-03T09:12:39.205Z,44.10
2018-09-03T09:15:10.777Z,43.90
2018-09-03T09:17:42.761Z,44.10
2018-09-03T09:20:14.150Z,43.90
2018-09-03T09:22:45.953Z,44.00
2018-09-03T09:25:17.502Z,43.90
2018-09-03T09:27:49.338Z,44.10
2018-09-03T09:30:20.710Z,43.90
2018-09-03T09:32:52.485Z,44.00
2018-09-03T09:35:23.817Z,44.00
2018-09-03T09:37:55.844Z,44.00
2018-09-03T09:40:27.242Z,44.00
2018-09-03T09:42:59.618Z,44.00
2018-09-03T09:45:31.237Z,43.80
2018-09-03T09:48:04.997Z,43.30
2018-09-03T09:50:36.309Z,43.10
2018-09-03T09:53:09.776Z,43.10
2018-09-03T09:55:41.307Z,43.10
2018-09-03T09:58:15.167Z,42.90
2018-09-03T10:00:51.551Z,43.00
2018-09-03T10:03:24.950Z,43.30
2018-09-03T10:05:56.395Z,43.10
2018-09-03T10:08:28.312Z,42.90
2018-09-03T10:10:59.625Z,42.80
2018-09-03T10:13:31.453Z,42.80
2018-09-03T10:16:02.972Z,42.90
2018-09-03T10:18:35.266Z,42.70
2018-09-03T10:21:07.125Z,42.70
2018-09-03T10:23:38.494Z,42.70
2018-09-03T10:26:09.991Z,42.50
2018-09-03T10:28:42.006Z,42.20
2018-09-03T10:31:13.673Z,42.20
2018-09-03T10:33:45.310Z,42.20
2018-09-03T10:36:16.610Z,42.40
2018-09-03T10:38:47.981Z,42.50
2018-09-03T10:41:19.489Z,42.50
2018-09-03T10:43:51.421Z,42.60
2018-09-03T10:46:22.666Z,42.60
2018-09-03T10:48:54.358Z,42.50
2018-09-03T10:51:25.917Z,42.60
2018-09-03T10:53:57.318Z,42.60
2018-09-03T10:56:28.897Z,42.50
2018-09-03T10:59:00.594Z,42.60
2018-09-03T11:01:32.037Z,42.60
2018-09-03T11:04:06.944Z,42.50
2018-09-03T11:06:38.451Z,42.40
2018-09-03T11:09:11.741Z,42.40
2018-09-03T11:11:43.063Z,42.40
2018-09-03T11:14:15.489Z,42.30
2018-09-03T11:16:46.969Z,42.30
2018-09-03T11:19:20.057Z,42.20
2018-09-03T11:21:51.344Z,42.20
2018-09-03T11:24:22.831Z,42.40
2018-09-03T11:26:54.153Z,42.40
2018-09-03T11:29:25.898Z,42.30
2018-09-03T11:31:57.344Z,42.30
2018-09-03T11:34:29.070Z,42.40
2018-09-03T11:37:00.556Z,42.20
2018-09-03T11:39:32.153Z,42.00
2018-09-03T11:42:03.486Z,42.10
2018-09-03T11:44:35.400Z,42.00
2018-09-03T11:47:06.742Z,41.90
2018-09-03T11:49:39.520Z,41.90
2018-09-03T11:52:10.771Z,41.60
2018-09-03T11:54:42.228Z,41.40
2018-09-03T11:57:13.477Z,41.50
2018-09-03T11:59:45.258Z,41.30
2018-09-03T12:02:16.906Z,41.30
2018-09-03T12:04:50.678Z,41.10
2018-09-03T12:07:22.702Z,41.10
2018-09-03T12:09:54.210Z,41.20
2018-09-03T12:12:26.184Z,41.20
2018-09-03T12:15:01.217Z,41.30
2018-09-03T12:17:32.700Z,41.10
2018-09-03T12:20:04.157Z,41.00
2018-09-03T12:22:35.407Z,40.90
2018-09-03T12:25:08.246Z,40.90
2018-09-03T12:27:39.492Z,40.80
2018-09-03T12:30:12.029Z,40.70
2018-09-03T12:32:44.341Z,40.50
2018-09-03T12:35:16.771Z,40.30
2018-09-03T12:37:49.001Z,40.10
2018-09-03T12:40:20.864Z,40.10
2018-09-03T12:42:52.606Z,40.10
2018-09-03T12:45:29.016Z,40.00
2018-09-03T12:48:00.358Z,40.00
2018-09-03T12:50:32.313Z,39.90
2018-09-03T12:53:03.766Z,39.90
2018-09-03T12:55:35.709Z,39.80
2018-09-03T12:58:07.218Z,39.70
2018-09-03T13:00:38.980Z,39.60
2018-09-03T13:03:10.506Z,39.50
2018-09-03T13:05:43.806Z,39.30
2018-09-03T13:08:15.101Z,39.40
2018-09-03T13:10:46.826Z,39.40
2018-09-03T13:13:18.178Z,39.40
2018-09-03T13:15:50.189Z,39.40
2018-09-03T13:18:21.596Z,39.40
2018-09-03T13:20:53.364Z,39.20
2018-09-03T13:23:24.493Z,39.20
2018-09-03T13:25:55.894Z,39.10
2018-09-03T13:28:27.277Z,39.10
2018-09-03T13:30:59.029Z,38.80
2018-09-03T13:33:30.338Z,38.70
2018-09-03T13:36:02.005Z,38.70
2018-09-03T13:38:33.590Z,38.70
2018-09-03T13:41:07.075Z,38.70
2018-09-03T13:43:38.351Z,38.70
2018-09-03T13:46:10.231Z,38.70
2018-09-03T13:48:41.802Z,38.60
2018-09-03T13:51:13.388Z,38.70
2018-09-03T13:53:44.773Z,38.70
2018-09-03T13:56:16.291Z,38.70
2018-09-03T13:58:47.562Z,38.70
2018-09-03T14:01:19.317Z,38.80
2018-09-03T14:03:50.701Z,38.70
2018-09-03T14:06:23.241Z,38.70
2018-09-03T14:08:54.597Z,38.60
2018-09-03T14:11:26.485Z,38.50
2018-09-03T14:13:58.039Z,38.50
2018-09-03T14:16:29.685Z,38.60
2018-09-03T14:19:01.384Z,38.60
2018-09-03T14:21:33.579Z,38.60
2018-09-03T14:24:05.038Z,38.50
2018-09-03T14:26:36.625Z,38.40
2018-09-03T14:29:08.073Z,38.50
2018-09-03T14:31:39.965Z,38.50
2018-09-03T14:34:11.399Z,38.50
2018-09-03T14:36:42.909Z,38.50
2018-09-03T14:39:14.241Z,38.50
2018-09-03T14:41:46.058Z,38.50
2018-09-03T14:44:17.401Z,38.50
2018-09-03T14:46:49.186Z,38.40
2018-09-03T14:49:21.205Z,38.40
2018-09-03T14:51:52.934Z,38.40
2018-09-03T14:54:24.425Z,38.30
2018-09-03T14:56:56.098Z,38.20
2018-09-03T14:59:27.434Z,38.20
2018-09-03T15:01:59.847Z,38.20
2018-09-03T15:04:32.210Z,38.20
2018-09-03T15:07:05.091Z,38.30
2018-09-03T15:09:36.581Z,38.20
2018-09-03T15:12:07.205Z,38.20
2018-09-03T15:14:38.612Z,38.20
2018-09-03T15:17:10.625Z,38.20
2018-09-03T15:19:41.973Z,38.10
2018-09-03T15:22:13.593Z,38.10
2018-09-03T15:24:45.025Z,38.00
2018-09-03T15:27:16.629Z,38.10
2018-09-03T15:29:47.989Z,38.10
2018-09-03T15:32:20.170Z,38.10
2018-09-03T15:34:51.468Z,38.00
2018-09-03T15:37:23.009Z,38.00
2018-09-03T15:39:54.880Z,38.00
2018-09-03T15:42:26.714Z,37.90
2018-09-03T15:44:58.498Z,37.90
2018-09-03T15:47:30.159Z,37.90
2018-09-03T15:50:01.474Z,37.90
2018-09-03T15:52:33.185Z,37.90
2018-09-03T15:55:08.189Z,38.00
2018-09-03T15:57:39.676Z,37.90
2018-09-03T16:00:11.705Z,38.00
2018-09-03T16:02:43.546Z,38.00
2018-09-03T16:05:14.941Z,38.00
2018-09-03T16:07:47.315Z,38.00
2018-09-03T16:10:18.581Z,37.90
2018-09-03T16:12:50.393Z,37.90
2018-09-03T16:15:21.830Z,38.00
2018-09-03T16:17:55.024Z,37.90
2018-09-03T16:20:26.327Z,37.90
2018-09-03T16:22:58.454Z,37.90
2018-09-03T16:25:29.930Z,37.90
2018-09-03T16:28:04.799Z,37.80
2018-09-03T16:30:36.402Z,37.80
2018-09-03T16:33:09.959Z,37.70
2018-09-03T16:35:41.527Z,37.70
2018-09-03T16:38:13.723Z,37.70
2018-09-03T16:40:45.147Z,37.70
2018-09-03T16:43:16.644Z,37.70
2018-09-03T16:45:47.847Z,37.60
2018-09-03T16:48:19.837Z,37.50
2018-09-03T16:50:51.394Z,37.50
2018-09-03T16:53:22.885Z,37.50
2018-09-03T16:55:54.426Z,37.50
2018-09-03T16:58:26.188Z,37.40
2018-09-03T17:00:57.504Z,37.50
2018-09-03T17:03:29.536Z,37.40
2018-09-03T17:06:01.148Z,37.30
2018-09-03T17:08:36.262Z,37.30
2018-09-03T17:11:09.165Z,37.40
2018-09-03T17:13:40.809Z,37.40
2018-09-03T17:16:14.544Z,37.30
2018-09-03T17:18:47.869Z,37.30
2018-09-03T17:21:19.350Z,37.30
2018-09-03T17:23:50.958Z,37.30
2018-09-03T17:26:22.700Z,37.20
2018-09-03T17:28:54.557Z,37.20
2018-09-03T17:31:26.136Z,37.20
2018-09-03T17:33:57.928Z,37.20
2018-09-03T17:36:38.319Z,37.20
2018-09-03T17:39:10.506Z,37.10
2018-09-03T17:41:42.041Z,37.10
2018-09-03T17:44:13.629Z,37.10
2018-09-03T17:46:45.850Z,37.00
2018-09-03T17:49:17.540Z,37.00
2018-09-03T17:51:49.006Z,37.00
2018-09-03T17:54:21.121Z,37.10
2018-09-03T17:56:52.398Z,37.00
2018-09-03T17:59:24.234Z,36.90
2018-09-03T18:01:55.465Z,37.00
2018-09-03T18:04:27.187Z,37.00
2018-09-03T18:06:58.597Z,37.00
2018-09-03T18:09:30.609Z,36.90
2018-09-03T18:12:03.861Z,36.80
2018-09-03T18:14:35.266Z,36.80
2018-09-03T18:17:08.118Z,36.80
2018-09-03T18:19:39.934Z,36.70
2018-09-03T18:22:11.352Z,36.70
2018-09-03T18:24:42.693Z,36.60
2018-09-03T18:27:13.898Z,36.60
2018-09-03T18:29:45.637Z,36.60
2018-09-03T18:32:17.026Z,36.50
2018-09-03T18:34:50.042Z,36.50
2018-09-03T18:37:21.203Z,36.40
2018-09-03T18:39:52.993Z,36.40
2018-09-03T18:42:24.225Z,36.40
2018-09-03T18:44:55.992Z,36.20
2018-09-03T18:47:28.203Z,36.20
2018-09-03T18:50:00.196Z,36.30
2018-09-03T18:52:32.010Z,36.30
2018-09-03T18:55:05.484Z,36.20
2018-09-03T18:57:37.186Z,36.20
2018-09-03T19:00:09.694Z,36.10
2018-09-03T19:02:40.929Z,36.00
2018-09-03T19:05:12.773Z,36.00
2018-09-03T19:07:44.321Z,36.00
2018-09-03T19:10:16.955Z,36.00
2018-09-03T19:12:48.432Z,35.90
2018-09-03T19:15:20.035Z,35.90
2018-09-03T19:17:51.888Z,35.90
2018-09-03T19:20:23.653Z,35.90
2018-09-03T19:22:55.169Z,36.00
2018-09-03T19:25:26.965Z,35.80
2018-09-03T19:27:58.313Z,36.00
2018-09-03T19:30:30.134Z,35.90
2018-09-03T19:33:03.845Z,35.90
2018-09-03T19:35:35.530Z,35.90
2018-09-03T19:38:08.635Z,35.90
2018-09-03T19:40:40.237Z,35.80
2018-09-03T19:43:12.586Z,35.80
2018-09-03T19:45:44.628Z,35.80
2018-09-03T19:48:16.246Z,35.80
2018-09-03T19:50:47.700Z,35.80
2018-09-03T19:53:19.115Z,35.70
2018-09-03T19:55:50.894Z,35.80
2018-09-03T19:58:22.225Z,35.80
2018-09-03T20:00:53.953Z,35.80
2018-09-03T20:03:25.281Z,35.80
2018-09-03T20:05:57.261Z,35.80
2018-09-03T20:08:28.814Z,35.70
2018-09-03T20:11:00.780Z,35.70
2018-09-03T20:13:32.354Z,35.80
2018-09-03T20:16:04.097Z,35.60
2018-09-03T20:18:35.553Z,35.50
2018-09-03T20:21:07.314Z,35.50
2018-09-03T20:23:38.962Z,35.50
2018-09-03T20:26:10.498Z,35.40
2018-09-03T20:28:41.685Z,35.50
2018-09-03T20:31:13.566Z,35.50
2018-09-03T20:33:44.929Z,35.40
2018-09-03T20:36:16.418Z,35.40
2018-09-03T20:38:47.885Z,35.30
2018-09-03T20:41:19.545Z,35.20
2018-09-03T20:43:52.881Z,35.20
2018-09-03T20:46:24.513Z,35.10
2018-09-03T20:48:56.220Z,35.10
2018-09-03T20:51:27.947Z,35.20
2018-09-03T20:53:59.397Z,35.30
2018-09-03T20:56:31.150Z,35.20
2018-09-03T20:59:02.942Z,35.30
2018-09-03T21:01:35.178Z,35.20
2018-09-03T21:04:06.361Z,35.20
2018-09-03T21:06:38.206Z,35.20
2018-09-03T21:09:09.819Z,35.20
2018-09-03T21:11:41.395Z,35.10
2018-09-03T21:14:12.801Z,35.00
2018-09-03T21:16:44.581Z,35.00
2018-09-03T21:19:16.010Z,35.00
2018-09-03T21:21:47.619Z,35.00
2018-09-03T21:24:18.966Z,35.00
2018-09-03T21:26:51.618Z,34.90
2018-09-03T21:29:22.939Z,34.90
2018-09-03T21:31:54.585Z,34.90
2018-09-03T21:34:26.167Z,34.80
2018-09-03T21:36:57.808Z,34.80
2018-09-03T21:39:29.214Z,34.70
2018-09-03T21:42:00.857Z,34.80
2018-09-03T21:44:34.453Z,34.80
2018-09-03T21:47:06.889Z,34.80
2018-09-03T21:49:38.305Z,34.90
2018-09-03T21:52:09.929Z,34.80
2018-09-03T21:54:41.450Z,34.80
2018-09-03T21:57:13.239Z,34.70
2018-09-03T21:59:44.498Z,34.70
2018-09-03T22:02:16.438Z,34.70
2018-09-03T22:04:48.125Z,34.70
2018-09-03T22:07:19.707Z,34.80
2018-09-03T22:09:51.042Z,34.70
2018-09-03T22:12:22.682Z,34.70
2018-09-03T22:14:54.020Z,34.70
2018-09-03T22:17:26.134Z,34.70
2018-09-03T22:19:57.446Z,34.80
2018-09-03T22:22:29.201Z,34.70
2018-09-03T22:25:01.468Z,34.60
2018-09-03T22:27:33.261Z,34.60
2018-09-03T22:30:04.819Z,34.60
2018-09-03T22:32:36.673Z,34.60
2018-09-03T22:35:08.145Z,34.60
2018-09-03T22:37:40.470Z,34.60
2018-09-03T22:40:11.805Z,34.60
2018-09-03T22:42:43.452Z,34.60
2018-09-03T22:45:16.363Z,34.60
2018-09-03T22:47:47.857Z,34.60
2018-09-03T22:50:19.379Z,34.50
2018-09-03T22:52:51.163Z,34.50
2018-09-03T22:55:22.553Z,34.50
2018-09-03T22:57:54.206Z,34.40
2018-09-03T23:00:25.515Z,34.40
2018-09-03T23:02:57.225Z,34.40
2018-09-03T23:05:28.708Z,34.30
2018-09-03T23:08:00.421Z,34.30
2018-09-03T23:10:31.790Z,34.20
2018-09-03T23:13:03.533Z,34.20
2018-09-03T23:15:34.817Z,34.20
2018-09-03T23:18:07.494Z,34.20
2018-09-03T23:20:38.845Z,34.30
2018-09-03T23:23:10.617Z,34.20
2018-09-03T23:25:41.990Z,34.30
2018-09-03T23:28:14.126Z,34.20
2018-09-03T23:30:46.187Z,34.10
2018-09-03T23:33:17.948Z,34.10
2018-09-03T23:35:49.481Z,34.00
2018-09-03T23:38:21.098Z,34.00
2018-09-03T23:40:52.392Z,34.00
2018-09-03T23:43:24.621Z,34.00
2018-09-03T23:45:57.325Z,34.00
2018-09-03T23:48:28.984Z,33.90
2018-09-03T23:51:00.534Z,34.00
2018-09-03T23:53:32.404Z,33.90
2018-09-03T23:56:07.431Z,33.90
2018-09-03T23:58:39.119Z,33.80
